createdAt,value
2023-02-13T00:00:22.669Z,19.81
2023-02-13T00:02:49.321Z,19.89
2023-02-13T00:05:15.962Z,19.70
2023-02-13T00:07:42.716Z,19.79
2023-02-13T00:10:09.789Z,19.81
2023-02-13T00:12:36.764Z,19.89
2023-02-13T00:15:04.146Z,19.89
2023-02-13T00:17:30.747Z,19.88
2023-02-13T00:19:57.765Z,19.66
2023-02-13T00:22:24.650Z,19.85
2023-02-13T00:24:51.462Z,19.88
2023-02-13T00:27:18.449Z,19.82
2023-02-13T00:29:45.093Z,19.89
2023-02-13T00:32:12.043Z,19.71
2023-02-13T00:34:38.791Z,19.88
2023-02-13T00:37:05.499Z,19.77
2023-02-13T00:39:32.035Z,19.88
2023-02-13T00:41:58.666Z,19.66
2023-02-13T00:44:25.410Z,19.83
2023-02-13T00:46:52.010Z,19.67
2023-02-13T00:49:18.585Z,19.72
2023-02-13T00:51:45.257Z,19.66
2023-02-13T00:54:11.766Z,19.81
2023-02-13T00:56:38.464Z,19.73
2023-02-13T00:59:06.121Z,19.88
2023-02-13T01:01:32.808Z,19.87
2023-02-13T01:03:59.909Z,19.76
2023-02-13T01:06:27.633Z,19.82
2023-02-13T01:08:54.364Z,19.86
2023-02-13T01:11:21.142Z,19.90
2023-02-13T01:13:47.792Z,19.87
2023-02-13T01:16:15.950Z,19.77
2023-02-13T01:18:42.581Z,19.69
2023-02-13T01:21:16.495Z,19.83
2023-02-13T01:23:43.111Z,19.82
2023-02-13T01:26:16.554Z,19.76
2023-02-13T01:28:43.310Z,19.75
2023-02-13T01:31:11.375Z,19.89
2023-02-13T01:33:38.074Z,19.88
2023-02-13T01:36:10.175Z,19.88
2023-02-13T01:38:38.235Z,19.86
2023-02-13T01:41:04.998Z,19.78
2023-02-13T01:43:54.115Z,19.90
2023-02-13T01:46:50.425Z,19.89
2023-02-13T01:49:20.938Z,19.85
2023-02-13T01:51:49.791Z,19.89
2023-02-13T01:54:22.575Z,19.65
2023-02-13T01:56:55.557Z,19.70
2023-02-13T01:59:33.405Z,19.89
2023-02-13T02:02:01.447Z,19.76
2023-02-13T02:04:38.296Z,19.63
2023-02-13T02:07:18.969Z,19.83
2023-02-13T02:09:48.013Z,19.90
2023-02-13T02:12:24.319Z,19.66
2023-02-13T02:14:53.924Z,19.90
2023-02-13T02:17:23.746Z,19.90
2023-02-13T02:20:24.536Z,19.91
2023-02-13T02:23:04.512Z,19.90
2023-02-13T02:25:38.978Z,19.90
2023-02-13T02:28:21.716Z,19.90
2023-02-13T02:31:00.767Z,19.90
2023-02-13T02:33:45.939Z,19.91
2023-02-13T02:36:22.954Z,19.90
2023-02-13T02:38:58.585Z,19.90
2023-02-13T02:41:45.559Z,19.90
2023-02-13T02:44:35.616Z,19.91
2023-02-13T02:47:43.175Z,19.90
2023-02-13T02:50:32.758Z,19.78
2023-02-13T02:53:14.528Z,19.91
2023-02-13T02:55:43.606Z,19.87
2023-02-13T02:58:30.191Z,19.91
2023-02-13T03:01:19.725Z,19.93
2023-02-13T03:04:06.137Z,19.77
2023-02-13T03:06:46.345Z,19.88
2023-02-13T03:09:37.541Z,19.91
2023-02-13T03:12:23.262Z,19.92
2023-02-13T03:14:49.934Z,19.86
2023-02-13T03:17:37.796Z,19.86
2023-02-13T03:20:52.234Z,19.92
2023-02-13T03:24:11.323Z,19.92
2023-02-13T03:26:50.362Z,19.92
2023-02-13T03:29:51.615Z,19.92
2023-02-13T03:32:32.441Z,19.87
2023-02-13T03:35:27.840Z,19.92
2023-02-13T03:38:01.118Z,19.92
2023-02-13T03:40:59.835Z,19.92
2023-02-13T03:43:29.879Z,19.89
2023-02-13T03:45:58.066Z,19.84
2023-02-13T03:48:49.915Z,19.94
2023-02-13T03:51:23.673Z,19.94
2023-02-13T03:53:54.742Z,19.92
2023-02-13T03:56:40.520Z,19.76
2023-02-13T03:59:18.882Z,19.71
2023-02-13T04:01:51.585Z,19.94
2023-02-13T04:04:35.642Z,19.87
2023-02-13T04:07:10.614Z,19.92
2023-02-13T04:09:39.983Z,19.72
2023-02-13T04:12:45.030Z,19.95
2023-02-13T04:15:20.514Z,19.94
2023-02-13T04:17:53.852Z,19.92
2023-02-13T04:20:20.726Z,19.93
2023-02-13T04:22:48.371Z,19.94
2023-02-13T04:25:17.886Z,19.89
2023-02-13T04:27:44.609Z,19.94
2023-02-13T04:30:12.362Z,19.93
2023-02-13T04:32:38.921Z,19.75
2023-02-13T04:35:06.042Z,19.88
2023-02-13T04:37:32.637Z,19.89
2023-02-13T04:39:59.279Z,19.93
2023-02-13T04:42:25.925Z,19.81
2023-02-13T04:44:52.500Z,19.69
2023-02-13T04:47:18.990Z,19.94
2023-02-13T04:49:45.757Z,19.87
2023-02-13T04:52:12.334Z,19.94
2023-02-13T04:54:38.930Z,19.87
2023-02-13T04:57:05.491Z,19.93
2023-02-13T04:59:32.377Z,19.93
2023-02-13T05:01:59.344Z,19.94
2023-02-13T05:04:26.165Z,19.92
2023-02-13T05:06:52.859Z,19.94
2023-02-13T05:09:19.466Z,19.94
2023-02-13T05:11:46.026Z,19.94
2023-02-13T05:14:12.809Z,19.90
2023-02-13T05:16:39.353Z,19.92
2023-02-13T05:19:06.076Z,19.93
2023-02-13T05:21:51.412Z,19.87
2023-02-13T05:24:20.368Z,19.92
2023-02-13T05:26:47.404Z,19.92
2023-02-13T05:29:20.128Z,19.80
2023-02-13T05:31:48.411Z,19.92
2023-02-13T05:34:16.308Z,19.93
2023-02-13T05:36:43.107Z,19.87
2023-02-13T05:39:09.765Z,19.92
2023-02-13T05:41:36.463Z,19.92
2023-02-13T05:44:03.543Z,19.92
2023-02-13T05:46:30.169Z,19.79
2023-02-13T05:48:56.800Z,19.86
2023-02-13T05:51:23.625Z,19.79
2023-02-13T05:53:50.159Z,19.76
2023-02-13T05:56:16.831Z,19.69
2023-02-13T05:58:45.117Z,19.74
2023-02-13T06:01:11.883Z,19.61
2023-02-13T06:03:40.210Z,19.93
2023-02-13T06:06:07.497Z,19.93
2023-02-13T06:08:34.180Z,19.55
2023-02-13T06:11:01.864Z,19.93
2023-02-13T06:13:28.641Z,19.92
2023-02-13T06:15:58.103Z,19.92
2023-02-13T06:18:24.996Z,19.70
2023-02-13T06:20:51.678Z,19.91
2023-02-13T06:23:18.432Z,19.81
2023-02-13T06:25:44.985Z,19.91
2023-02-13T06:28:11.670Z,19.91
2023-02-13T06:30:38.294Z,19.86
2023-02-13T06:33:04.931Z,19.91
2023-02-13T06:35:32.328Z,19.89
2023-02-13T06:37:58.896Z,19.63
2023-02-13T06:40:25.813Z,19.79
2023-02-13T06:42:52.722Z,19.91
2023-02-13T06:45:19.463Z,19.90
2023-02-13T06:47:48.742Z,19.90
2023-02-13T06:50:18.243Z,19.77
2023-02-13T06:52:52.193Z,19.23
2023-02-13T06:55:19.278Z,19.83
2023-02-13T06:57:46.079Z,19.82
2023-02-13T07:00:14.596Z,19.68
2023-02-13T07:02:43.107Z,19.73
2023-02-13T07:05:11.521Z,19.85
2023-02-13T07:07:40.964Z,19.91
2023-02-13T07:10:10.525Z,19.90
2023-02-13T07:12:37.270Z,19.91
2023-02-13T07:15:05.027Z,19.91
2023-02-13T07:17:32.365Z,19.90
2023-02-13T07:19:59.265Z,19.89
2023-02-13T07:22:25.903Z,19.86
2023-02-13T07:24:52.648Z,19.89
2023-02-13T07:27:19.216Z,19.89
2023-02-13T07:29:45.885Z,19.76
2023-02-13T07:32:12.647Z,19.45
2023-02-13T07:34:44.456Z,19.05
2023-02-13T07:37:16.099Z,19.59
2023-02-13T07:39:42.894Z,19.68
2023-02-13T07:42:09.745Z,19.72
2023-02-13T07:44:37.001Z,19.86
2023-02-13T07:47:04.257Z,19.67
2023-02-13T07:49:30.937Z,19.00
2023-02-13T07:51:58.496Z,19.85
2023-02-13T07:54:25.103Z,19.67
2023-02-13T07:56:51.832Z,19.65
2023-02-13T07:59:18.459Z,19.79
2023-02-13T08:01:45.125Z,19.78
2023-02-13T08:04:11.789Z,19.55
2023-02-13T08:06:42.567Z,19.72
2023-02-13T08:09:39.529Z,19.73
2023-02-13T08:12:09.128Z,19.72
2023-02-13T08:14:38.788Z,19.85
2023-02-13T08:17:05.346Z,19.92
2023-02-13T08:19:32.032Z,19.80
2023-02-13T08:21:58.732Z,19.83
2023-02-13T08:24:25.413Z,19.95
2023-02-13T08:26:52.124Z,19.60
2023-02-13T08:29:18.799Z,19.55
2023-02-13T08:31:45.685Z,20.00
2023-02-13T08:34:12.553Z,20.01
2023-02-13T08:36:39.279Z,20.03
2023-02-13T08:39:06.091Z,20.05
2023-02-13T08:41:32.813Z,20.07
2023-02-13T08:43:59.381Z,19.83
2023-02-13T08:46:26.083Z,20.04
2023-02-13T08:48:52.760Z,20.12
2023-02-13T08:51:19.461Z,20.14
2023-02-13T08:53:46.191Z,19.78
2023-02-13T08:56:13.099Z,19.66
2023-02-13T08:59:58.904Z,20.20
2023-02-13T09:02:25.769Z,20.20
2023-02-13T09:04:52.392Z,20.24
2023-02-13T09:07:19.068Z,20.19
2023-02-13T09:09:45.676Z,20.28
2023-02-13T09:12:13.499Z,20.29
2023-02-13T09:14:40.690Z,20.19
2023-02-13T09:17:07.332Z,20.32
2023-02-13T09:19:35.310Z,20.35
2023-02-13T09:22:01.923Z,20.23
2023-02-13T09:24:28.673Z,20.36
2023-02-13T09:26:56.683Z,20.39
2023-02-13T09:29:23.784Z,20.20
2023-02-13T09:31:50.787Z,20.41
2023-02-13T09:34:17.667Z,20.23
2023-02-13T09:36:44.188Z,20.01
2023-02-13T09:39:10.917Z,20.45
2023-02-13T09:41:40.964Z,20.45
2023-02-13T09:44:34.110Z,20.47
2023-02-13T09:47:16.244Z,20.44
2023-02-13T09:49:48.645Z,20.39
2023-02-13T09:52:18.044Z,20.50
2023-02-13T09:54:44.811Z,20.36
2023-02-13T09:57:20.110Z,20.53
2023-02-13T10:00:11.865Z,20.54
2023-02-13T10:02:47.882Z,20.54
2023-02-13T10:05:31.762Z,20.55
2023-02-13T10:08:12.861Z,20.42
2023-02-13T10:11:05.071Z,20.31
2023-02-13T10:13:50.147Z,20.59
2023-02-13T10:16:23.409Z,20.60
2023-02-13T10:18:56.205Z,20.61
2023-02-13T10:24:45.961Z,20.65
2023-02-13T10:27:19.290Z,20.66
2023-02-13T10:30:12.610Z,20.67
2023-02-13T10:32:52.209Z,20.68
2023-02-13T10:35:27.361Z,20.70
2023-02-13T10:37:57.206Z,20.71
2023-02-13T10:40:32.192Z,20.73
2023-02-13T10:42:58.715Z,20.74
2023-02-13T10:45:58.144Z,20.60
2023-02-13T10:49:01.380Z,20.75
2023-02-13T10:52:11.370Z,20.77
2023-02-13T10:55:08.506Z,20.77
2023-02-13T10:57:57.972Z,20.80
2023-02-13T11:00:42.837Z,20.75
2023-02-13T11:03:21.984Z,20.70
2023-02-13T11:05:49.959Z,20.82
2023-02-13T11:08:24.409Z,20.83
2023-02-13T11:10:52.268Z,20.82
2023-02-13T11:13:27.519Z,20.83
2023-02-13T11:16:07.314Z,20.84
2023-02-13T11:18:41.020Z,20.84
2023-02-13T11:21:21.939Z,20.85
2023-02-13T11:23:56.261Z,20.86
2023-02-13T11:26:31.726Z,20.86
2023-02-13T11:29:04.212Z,20.87
2023-02-13T11:31:36.855Z,20.74
2023-02-13T11:34:26.301Z,20.90
2023-02-13T11:37:14.788Z,20.90
2023-02-13T11:39:42.691Z,20.91
2023-02-13T11:42:35.637Z,20.90
2023-02-13T11:45:24.080Z,20.93
2023-02-13T11:47:51.958Z,20.91
2023-02-13T11:50:24.342Z,20.94
2023-02-13T11:53:22.945Z,20.96
2023-02-13T11:56:13.632Z,20.84
2023-02-13T11:58:41.273Z,20.97
2023-02-13T12:01:20.105Z,20.97
2023-02-13T12:04:28.218Z,20.99
2023-02-13T12:07:12.502Z,20.92
2023-02-13T12:09:43.992Z,20.97
2023-02-13T12:12:18.573Z,20.98
2023-02-13T12:14:46.276Z,20.94
2023-02-13T12:17:30.701Z,20.98
2023-02-13T12:19:59.210Z,20.98
2023-02-13T12:22:50.714Z,20.99
2023-02-13T12:25:39.520Z,20.98
2023-02-13T12:28:17.272Z,20.98
2023-02-13T12:31:09.145Z,20.98
2023-02-13T12:34:00.426Z,20.99
2023-02-13T12:36:43.200Z,20.85
2023-02-13T12:39:12.763Z,20.98
2023-02-13T12:41:58.218Z,20.97
2023-02-13T12:44:45.904Z,20.98
2023-02-13T12:47:27.422Z,20.97
2023-02-13T12:50:28.771Z,20.98
2023-02-13T12:53:20.526Z,20.98
2023-02-13T12:56:18.558Z,20.97
2023-02-13T12:59:00.309Z,20.96
2023-02-13T13:02:07.251Z,20.95
2023-02-13T13:05:02.437Z,20.94
2023-02-13T13:07:31.781Z,20.94
2023-02-13T13:10:38.752Z,20.94
2023-02-13T13:13:12.957Z,20.93
2023-02-13T13:16:02.159Z,20.92
2023-02-13T13:18:53.645Z,20.92
2023-02-13T13:21:44.954Z,20.92
2023-02-13T13:24:49.939Z,20.91
2023-02-13T13:27:24.742Z,20.91
2023-02-13T13:30:01.881Z,20.92
2023-02-13T13:32:30.462Z,20.91
2023-02-13T13:34:58.097Z,20.92
2023-02-13T13:37:46.613Z,20.92
2023-02-13T13:40:49.376Z,20.92
2023-02-13T13:43:27.799Z,20.93
2023-02-13T13:46:12.138Z,20.94
2023-02-13T13:49:05.726Z,20.94
2023-02-13T13:51:32.535Z,20.94
2023-02-13T13:54:08.156Z,20.94
2023-02-13T13:56:53.262Z,20.94
2023-02-13T13:59:51.771Z,20.95
2023-02-13T14:02:18.401Z,20.95
2023-02-13T14:05:18.786Z,20.96
2023-02-13T14:07:47.528Z,20.97
2023-02-13T14:10:26.278Z,20.96
2023-02-13T14:12:55.764Z,20.95
2023-02-13T14:15:34.532Z,20.96
2023-02-13T14:18:14.110Z,20.96
2023-02-13T14:20:50.680Z,20.96
2023-02-13T14:23:32.379Z,20.96
2023-02-13T14:26:17.160Z,20.96
2023-02-13T14:28:57.547Z,20.96
2023-02-13T14:31:31.901Z,20.97
2023-02-13T14:34:05.445Z,20.96
2023-02-13T14:36:37.991Z,20.97
2023-02-13T14:39:18.367Z,20.93
2023-02-13T14:41:58.655Z,20.98
2023-02-13T14:44:51.318Z,20.98
2023-02-13T14:47:56.668Z,20.98
2023-02-13T14:50:32.620Z,20.98
2023-02-13T14:53:05.034Z,20.99
2023-02-13T14:55:36.397Z,20.88
2023-02-13T14:58:10.867Z,20.99
2023-02-13T15:00:45.894Z,21.00
2023-02-13T15:03:28.097Z,21.00
2023-02-13T15:06:02.952Z,20.90
2023-02-13T15:08:36.799Z,21.01
2023-02-13T15:11:03.702Z,20.87
2023-02-13T15:13:37.281Z,20.88
2023-02-13T15:16:08.636Z,21.00
2023-02-13T15:18:41.634Z,21.00
2023-02-13T15:21:15.091Z,21.00
2023-02-13T15:23:42.998Z,20.99
2023-02-13T15:26:19.012Z,20.84
2023-02-13T15:29:01.893Z,20.95
2023-02-13T15:31:33.510Z,20.96
2023-02-13T15:34:01.240Z,20.87
2023-02-13T15:36:36.297Z,20.95
2023-02-13T15:39:09.509Z,20.95
2023-02-13T15:41:43.698Z,20.94
2023-02-13T15:44:18.366Z,20.83
2023-02-13T15:46:48.307Z,20.89
2023-02-13T15:49:20.922Z,20.89
2023-02-13T15:51:50.528Z,20.74
2023-02-13T15:54:30.161Z,20.92
2023-02-13T15:57:00.151Z,20.91
2023-02-13T15:59:33.963Z,20.78
2023-02-13T16:02:03.401Z,20.79
2023-02-13T16:04:31.014Z,20.78
2023-02-13T16:06:58.902Z,20.70
2023-02-13T16:09:30.793Z,20.77
2023-02-13T16:12:01.616Z,20.67
2023-02-13T16:14:31.695Z,20.88
2023-02-13T16:17:00.234Z,20.76
2023-02-13T16:19:26.908Z,20.87
2023-02-13T16:21:57.238Z,20.79
2023-02-13T16:24:25.773Z,20.75
2023-02-13T16:26:52.784Z,20.85
2023-02-13T16:29:22.424Z,20.85
2023-02-13T16:31:52.710Z,20.77
2023-02-13T16:34:28.863Z,20.72
2023-02-13T16:36:56.441Z,20.68
2023-02-13T16:39:27.774Z,20.80
2023-02-13T16:41:54.726Z,20.80
2023-02-13T16:44:23.614Z,20.73
2023-02-13T16:46:53.651Z,20.83
2023-02-13T16:49:23.835Z,20.78
2023-02-13T16:51:55.184Z,20.77
2023-02-13T16:54:24.889Z,20.82
2023-02-13T16:57:19.699Z,20.82
2023-02-13T17:00:24.507Z,20.83
2023-02-13T17:02:51.995Z,20.72
2023-02-13T17:05:27.650Z,20.82
2023-02-13T17:08:00.392Z,20.85
2023-02-13T17:10:35.700Z,20.85
2023-02-13T17:13:13.267Z,20.84
2023-02-13T17:15:44.542Z,20.84
2023-02-13T17:18:11.282Z,20.83
2023-02-13T17:20:41.346Z,20.85
2023-02-13T17:23:17.441Z,20.76
2023-02-13T17:25:46.236Z,20.85
2023-02-13T17:28:15.595Z,20.87
2023-02-13T17:30:43.535Z,20.88
2023-02-13T17:33:25.112Z,20.89
2023-02-13T17:35:53.404Z,20.88
2023-02-13T17:38:20.517Z,20.90
2023-02-13T17:40:47.809Z,20.91
2023-02-13T17:43:16.899Z,20.91
2023-02-13T17:45:43.831Z,20.92
2023-02-13T17:48:10.803Z,20.94
2023-02-13T17:50:38.247Z,20.93
2023-02-13T17:53:07.700Z,20.93
2023-02-13T17:55:37.542Z,20.75
2023-02-13T17:58:04.259Z,20.93
2023-02-13T18:00:33.055Z,20.93
2023-02-13T18:03:00.885Z,20.93
2023-02-13T18:05:28.593Z,20.94
2023-02-13T18:07:55.557Z,20.91
2023-02-13T18:10:27.986Z,20.94
2023-02-13T18:12:57.015Z,20.94
2023-02-13T18:15:24.317Z,20.94
2023-02-13T18:17:51.190Z,20.95
2023-02-13T18:20:20.637Z,20.95
2023-02-13T18:22:50.557Z,20.82
2023-02-13T18:25:19.242Z,20.95
2023-02-13T18:27:46.492Z,20.87
2023-02-13T18:30:17.673Z,20.77
2023-02-13T18:32:45.668Z,20.83
2023-02-13T18:35:12.288Z,20.81
2023-02-13T18:37:39.250Z,20.90
2023-02-13T18:40:09.939Z,20.94
2023-02-13T18:42:38.119Z,20.94
2023-02-13T18:45:04.866Z,20.93
2023-02-13T18:47:31.690Z,20.93
2023-02-13T18:52:12.552Z,20.91
2023-02-13T18:54:39.268Z,20.85
2023-02-13T18:57:06.314Z,20.92
2023-02-13T18:59:34.649Z,20.81
2023-02-13T19:02:03.189Z,20.91
2023-02-13T19:04:30.770Z,20.91
2023-02-13T19:06:57.660Z,20.91
2023-02-13T19:09:24.320Z,20.91
2023-02-13T19:11:51.615Z,20.87
2023-02-13T19:14:18.601Z,20.90
2023-02-13T19:16:45.382Z,20.85
2023-02-13T19:19:12.075Z,20.92
2023-02-13T19:21:39.610Z,20.92
2023-02-13T19:24:17.228Z,20.86
2023-02-13T19:26:44.557Z,20.92
2023-02-13T19:29:11.155Z,20.68
2023-02-13T19:31:39.436Z,20.91
2023-02-13T19:34:06.348Z,20.91
2023-02-13T19:36:33.211Z,20.90
2023-02-13T19:39:04.119Z,20.66
2023-02-13T19:41:31.197Z,20.84
2023-02-13T19:43:58.447Z,20.90
2023-02-13T19:46:27.842Z,20.89
2023-02-13T19:48:54.583Z,20.89
2023-02-13T19:51:24.405Z,20.87
2023-02-13T19:54:06.531Z,20.89
2023-02-13T19:56:36.479Z,20.89
2023-02-13T19:59:06.941Z,20.82
2023-02-13T20:01:33.864Z,20.89
2023-02-13T20:04:03.565Z,20.82
2023-02-13T20:06:36.159Z,20.59
2023-02-13T20:09:09.826Z,20.88
2023-02-13T20:11:39.181Z,20.68
2023-02-13T20:14:11.551Z,20.91
2023-02-13T20:16:39.007Z,20.73
2023-02-13T20:19:11.765Z,20.74
2023-02-13T20:21:42.949Z,20.92
2023-02-13T20:24:12.670Z,20.53
2023-02-13T20:26:39.744Z,20.50
2023-02-13T20:29:07.563Z,20.67
2023-02-13T20:31:35.816Z,20.88
2023-02-13T20:34:05.980Z,20.94
2023-02-13T20:36:33.571Z,20.97
2023-02-13T20:39:03.559Z,20.94
2023-02-13T20:41:33.506Z,20.98
2023-02-13T20:44:05.937Z,20.89
2023-02-13T20:46:35.292Z,21.01
2023-02-13T20:49:02.223Z,20.89
2023-02-13T20:51:31.650Z,21.01
2023-02-13T20:53:59.958Z,20.97
2023-02-13T20:56:30.516Z,21.01
2023-02-13T20:58:59.628Z,21.02
2023-02-13T21:01:32.964Z,20.95
2023-02-13T21:04:00.112Z,21.00
2023-02-13T21:06:32.973Z,20.99
2023-02-13T21:09:00.850Z,20.98
2023-02-13T21:11:30.938Z,20.98
2023-02-13T21:13:58.723Z,20.96
2023-02-13T21:16:28.280Z,20.75
2023-02-13T21:19:00.304Z,20.94
2023-02-13T21:21:31.590Z,20.95
2023-02-13T21:24:08.039Z,20.94
2023-02-13T21:26:35.681Z,20.93
2023-02-13T21:29:02.403Z,20.93
2023-02-13T21:31:35.805Z,20.81
2023-02-13T21:34:08.822Z,20.91
2023-02-13T21:36:36.990Z,20.90
2023-02-13T21:39:06.026Z,20.67
2023-02-13T21:41:32.800Z,20.93
2023-02-13T21:43:59.418Z,20.53
2023-02-13T21:46:29.010Z,20.93
2023-02-13T21:48:58.630Z,20.95
2023-02-13T21:51:27.273Z,20.95
2023-02-13T21:53:57.225Z,20.96
2023-02-13T21:56:26.817Z,20.97
2023-02-13T21:58:54.212Z,20.97
2023-02-13T22:01:27.555Z,20.99
2023-02-13T22:03:59.840Z,20.99
2023-02-13T22:06:28.997Z,20.88
2023-02-13T22:08:57.716Z,20.91
2023-02-13T22:11:24.770Z,21.03
2023-02-13T22:13:55.827Z,20.67
2023-02-13T22:16:22.825Z,20.94
2023-02-13T22:18:50.650Z,20.73
2023-02-13T22:21:20.656Z,20.12
2023-02-13T22:23:48.644Z,20.76
2023-02-13T22:26:20.770Z,20.80
2023-02-13T22:28:48.239Z,21.04
2023-02-13T22:31:15.618Z,21.05
2023-02-13T22:33:42.967Z,20.83
2023-02-13T22:36:12.722Z,21.02
2023-02-13T22:38:40.952Z,20.60
2023-02-13T22:41:12.264Z,20.95
2023-02-13T22:43:39.500Z,20.88
2023-02-13T22:46:27.412Z,20.95
2023-02-13T22:48:54.919Z,20.74
2023-02-13T22:51:24.715Z,20.86
2023-02-13T22:53:56.504Z,20.95
2023-02-13T22:56:24.560Z,21.06
2023-02-13T22:58:51.262Z,20.90
2023-02-13T23:01:20.815Z,21.07
2023-02-13T23:03:47.688Z,21.03
2023-02-13T23:06:15.929Z,21.07
2023-02-13T23:08:42.874Z,21.08
2023-02-13T23:11:31.927Z,21.07
2023-02-13T23:13:59.136Z,21.08
2023-02-13T23:16:26.502Z,20.71
2023-02-13T23:18:56.100Z,21.03
2023-02-13T23:21:23.716Z,21.09
2023-02-13T23:23:50.659Z,20.93
2023-02-13T23:26:18.180Z,21.08
2023-02-13T23:28:44.807Z,21.03
2023-02-13T23:31:11.632Z,20.99
2023-02-13T23:33:38.256Z,20.93
2023-02-13T23:36:05.324Z,20.88
2023-02-13T23:38:31.851Z,21.09
2023-02-13T23:41:06.367Z,20.99
2023-02-13T23:43:33.004Z,21.03
2023-02-13T23:45:59.621Z,21.05
2023-02-13T23:48:26.411Z,21.01
2023-02-13T23:50:53.206Z,21.12
2023-02-13T23:53:22.693Z,21.10
2023-02-13T23:55:49.477Z,21.06
2023-02-13T23:58:16.023Z,20.95
